createdAt,value
2018-08-28T00:01:53.264Z,3.07
2018-08-28T00:04:21.994Z,3.50
2018-08-28T00:06:52.344Z,4.57
2018-08-28T00:09:21.394Z,3.47
2018-08-28T00:11:49.764Z,3.60
2018-08-28T00:14:18.069Z,3.83
2018-08-28T00:16:46.333Z,3.30
2018-08-28T00:19:14.596Z,4.27
2018-08-28T00:21:42.874Z,5.37
2018-08-28T00:24:11.138Z,3.20
2018-08-28T00:26:39.435Z,4.13
2018-08-28T00:29:07.719Z,3.00
2018-08-28T00:31:36.012Z,3.43
2018-08-28T00:34:04.274Z,3.23
2018-08-28T00:36:32.601Z,2.57
2018-08-28T00:39:00.907Z,2.30
2018-08-28T00:41:29.180Z,3.83
2018-08-28T00:43:57.463Z,3.70
2018-08-28T00:46:25.735Z,3.47
2018-08-28T00:48:54.005Z,3.47
2018-08-28T00:51:22.297Z,3.30
2018-08-28T00:53:50.563Z,3.20
2018-08-28T00:56:18.798Z,2.60
2018-08-28T00:58:47.077Z,3.50
2018-08-28T01:01:15.309Z,4.20
2018-08-28T01:03:43.564Z,2.53
2018-08-28T01:06:11.915Z,4.97
2018-08-28T01:08:40.144Z,5.33
2018-08-28T01:11:08.899Z,4.00
2018-08-28T01:13:37.134Z,3.70
2018-08-28T01:16:05.553Z,3.77
2018-08-28T01:18:33.818Z,3.10
2018-08-28T01:21:02.087Z,3.43
2018-08-28T01:23:30.381Z,7.30
2018-08-28T01:25:58.648Z,4.40
2018-08-28T01:28:26.882Z,5.30
2018-08-28T01:30:55.114Z,5.20
2018-08-28T01:33:23.367Z,3.03
2018-08-28T01:35:51.599Z,3.70
2018-08-28T01:38:19.841Z,3.13
2018-08-28T01:40:48.072Z,3.00
2018-08-28T01:43:21.827Z,4.60
2018-08-28T01:45:50.065Z,2.50
2018-08-28T01:48:18.359Z,3.20
2018-08-28T01:50:46.645Z,3.43
2018-08-28T01:53:14.869Z,3.80
2018-08-28T01:55:43.412Z,2.93
2018-08-28T01:58:11.664Z,7.20
2018-08-28T02:00:39.901Z,3.53
2018-08-28T02:03:08.142Z,3.00
2018-08-28T02:05:36.367Z,2.87
2018-08-28T02:08:04.745Z,3.23
2018-08-28T02:10:32.990Z,3.47
2018-08-28T02:13:01.261Z,2.60
2018-08-28T02:15:29.478Z,2.70
2018-08-28T02:17:57.718Z,2.83
2018-08-28T02:20:25.973Z,2.97
2018-08-28T02:22:54.217Z,3.77
2018-08-28T02:25:22.452Z,3.47
2018-08-28T02:27:50.743Z,2.37
2018-08-28T02:30:18.999Z,4.70
2018-08-28T02:32:47.267Z,3.60
2018-08-28T02:35:15.527Z,4.57
2018-08-28T02:37:43.804Z,3.27
2018-08-28T02:40:12.073Z,4.00
2018-08-28T02:42:40.370Z,2.83
2018-08-28T02:45:08.701Z,2.80
2018-08-28T02:47:36.958Z,2.43
2018-08-28T02:50:05.478Z,3.23
2018-08-28T02:52:33.743Z,2.53
2018-08-28T02:55:01.979Z,4.77
2018-08-28T02:57:30.233Z,2.80
2018-08-28T02:59:58.599Z,2.90
2018-08-28T03:02:26.843Z,2.50
2018-08-28T03:04:55.084Z,5.20
2018-08-28T03:07:23.340Z,3.47
2018-08-28T03:09:51.569Z,2.87
2018-08-28T03:12:19.809Z,5.10
2018-08-28T03:14:48.043Z,4.20
2018-08-28T03:17:16.298Z,2.80
2018-08-28T03:19:44.540Z,2.40
2018-08-28T03:22:12.912Z,2.90
2018-08-28T03:24:41.170Z,3.57
2018-08-28T03:27:09.415Z,6.13
2018-08-28T03:29:37.694Z,3.03
2018-08-28T03:32:05.943Z,3.10
2018-08-28T03:34:34.611Z,3.40
2018-08-28T03:37:03.026Z,3.23
2018-08-28T03:39:31.271Z,3.97
2018-08-28T03:41:59.510Z,2.80
2018-08-28T03:44:27.772Z,2.90
2018-08-28T03:46:56.004Z,2.87
2018-08-28T03:49:24.263Z,3.73
2018-08-28T03:51:52.499Z,4.10
2018-08-28T03:54:20.759Z,4.03
2018-08-28T03:56:49.026Z,4.27
2018-08-28T03:59:17.295Z,3.20
2018-08-28T04:01:45.555Z,3.00
2018-08-28T04:04:13.803Z,2.83
2018-08-28T04:06:42.096Z,2.90
2018-08-28T04:09:11.794Z,3.47
2018-08-28T04:11:40.190Z,4.10
2018-08-28T04:14:08.579Z,3.27
2018-08-28T04:16:36.886Z,3.73
2018-08-28T04:19:05.608Z,4.93
2018-08-28T04:21:33.876Z,5.00
2018-08-28T04:24:02.156Z,3.83
2018-08-28T04:26:30.411Z,5.13
2018-08-28T04:28:58.689Z,5.37
2018-08-28T04:31:27.051Z,6.10
2018-08-28T04:33:55.377Z,3.77
2018-08-28T04:36:23.642Z,4.17
2018-08-28T04:38:51.995Z,4.30
2018-08-28T04:41:20.256Z,4.03
2018-08-28T04:43:48.507Z,4.37
2018-08-28T04:46:16.791Z,3.47
2018-08-28T04:48:45.166Z,3.73
2018-08-28T04:51:13.390Z,3.87
2018-08-28T04:53:41.700Z,3.40
2018-08-28T04:56:09.948Z,3.73
2018-08-28T04:58:38.338Z,4.73
2018-08-28T05:01:06.608Z,3.50
2018-08-28T05:03:34.867Z,3.93
2018-08-28T05:06:03.135Z,4.43
2018-08-28T05:08:31.987Z,7.57
2018-08-28T05:11:00.218Z,9.37
2018-08-28T05:13:28.439Z,4.37
2018-08-28T05:15:56.875Z,5.97
2018-08-28T05:18:25.095Z,5.17
2018-08-28T05:20:53.372Z,9.20
2018-08-28T05:23:22.342Z,7.43
2018-08-28T05:25:50.666Z,5.33
2018-08-28T05:30:47.142Z,6.20
2018-08-28T05:33:15.395Z,6.03
2018-08-28T05:35:43.640Z,6.43
2018-08-28T05:38:11.951Z,7.73
2018-08-28T05:40:40.191Z,5.60
2018-08-28T05:43:08.499Z,5.40
2018-08-28T05:45:36.778Z,3.50
2018-08-28T05:48:05.155Z,4.20
2018-08-28T05:50:33.400Z,6.33
2018-08-28T05:53:02.779Z,3.30
2018-08-28T05:55:33.310Z,5.07
2018-08-28T05:58:02.715Z,5.23
2018-08-28T06:00:40.915Z,5.07
2018-08-28T06:03:09.628Z,4.07
2018-08-28T06:05:37.931Z,4.73
2018-08-28T06:08:06.451Z,4.50
2018-08-28T06:10:34.718Z,4.63
2018-08-28T06:13:03.055Z,5.17
2018-08-28T06:15:31.324Z,5.37
2018-08-28T06:17:59.681Z,6.23
2018-08-28T06:20:28.258Z,7.07
2018-08-28T06:22:56.692Z,5.43
2018-08-28T06:25:25.974Z,4.97
2018-08-28T06:27:59.718Z,5.77
2018-08-28T06:30:28.015Z,5.00
2018-08-28T06:32:56.314Z,4.67
2018-08-28T06:35:24.675Z,6.13
2018-08-28T06:37:52.935Z,6.30
2018-08-28T06:40:21.800Z,5.73
2018-08-28T06:42:50.373Z,5.00
2018-08-28T06:45:18.747Z,6.17
2018-08-28T06:47:47.251Z,7.47
2018-08-28T06:50:15.723Z,5.40
2018-08-28T06:52:43.983Z,4.87
2018-08-28T06:55:12.259Z,7.97
2018-08-28T06:57:41.505Z,6.73
2018-08-28T07:00:09.822Z,6.70
2018-08-28T07:02:38.511Z,10.63
2018-08-28T07:05:06.928Z,8.97
2018-08-28T07:07:35.225Z,7.97
2018-08-28T07:10:03.748Z,6.17
2018-08-28T07:12:32.078Z,8.53
2018-08-28T07:15:00.335Z,9.87
2018-08-28T07:17:28.638Z,7.23
2018-08-28T07:19:56.904Z,9.73
2018-08-28T07:22:26.171Z,10.77
2018-08-28T07:24:54.440Z,9.27
2018-08-28T07:27:22.725Z,10.33
2018-08-28T07:29:51.000Z,7.93
2018-08-28T07:32:19.275Z,8.30
2018-08-28T07:34:47.549Z,9.03
2018-08-28T07:37:15.898Z,6.83
2018-08-28T07:39:44.145Z,8.60
2018-08-28T07:42:12.453Z,7.87
2018-08-28T07:44:40.729Z,6.17
2018-08-28T07:47:09.022Z,8.30
2018-08-28T07:49:37.303Z,9.90
2018-08-28T07:52:05.760Z,9.35
2018-08-28T07:54:34.039Z,10.10
2018-08-28T07:57:02.342Z,7.78
2018-08-28T07:59:30.636Z,9.08
2018-08-28T08:01:58.928Z,6.90
2018-08-28T08:04:27.207Z,7.70
2018-08-28T08:06:55.524Z,7.78
2018-08-28T08:09:23.794Z,8.05
2018-08-28T08:11:52.064Z,9.68
2018-08-28T08:14:20.759Z,8.40
2018-08-28T08:16:49.063Z,11.85
2018-08-28T08:19:17.398Z,9.28
2018-08-28T08:21:45.704Z,9.53
2018-08-28T08:24:14.058Z,8.15
2018-08-28T08:26:43.183Z,8.55
2018-08-28T08:29:11.554Z,10.38
2018-08-28T08:31:39.976Z,8.65
2018-08-28T08:34:08.370Z,11.50
2018-08-28T08:36:36.914Z,10.20
2018-08-28T08:39:07.222Z,10.00
2018-08-28T08:41:36.485Z,9.40
2018-08-28T08:44:04.915Z,10.68
2018-08-28T08:46:33.228Z,9.03
2018-08-28T08:49:01.578Z,11.12
2018-08-28T08:51:29.903Z,8.95
2018-08-28T08:53:58.285Z,8.85
2018-08-28T08:56:26.607Z,11.78
2018-08-28T08:58:54.934Z,11.50
2018-08-28T09:01:23.252Z,10.50
2018-08-28T09:03:51.561Z,10.35
2018-08-28T09:06:19.915Z,7.78
2018-08-28T09:08:48.566Z,7.92
2018-08-28T09:11:16.931Z,9.25
2018-08-28T09:13:45.220Z,11.43
2018-08-28T09:16:13.575Z,13.08
2018-08-28T09:18:42.196Z,9.78
2018-08-28T09:21:10.523Z,10.15
2018-08-28T09:23:38.804Z,8.75
2018-08-28T09:26:07.085Z,8.68
2018-08-28T09:28:35.525Z,10.88
2018-08-28T09:31:03.835Z,8.63
2018-08-28T09:33:32.112Z,6.67
2018-08-28T09:36:00.379Z,7.05
2018-08-28T09:38:28.809Z,6.45
2018-08-28T09:40:56.935Z,8.68
2018-08-28T09:43:25.243Z,6.80
2018-08-28T09:45:53.512Z,7.80
2018-08-28T09:48:21.851Z,8.80
2018-08-28T09:50:50.162Z,8.15
2018-08-28T09:53:18.602Z,7.90
2018-08-28T09:55:46.912Z,7.65
2018-08-28T09:58:15.170Z,10.58
2018-08-28T10:00:48.958Z,8.70
2018-08-28T10:03:17.227Z,8.20
2018-08-28T10:05:45.559Z,9.03
2018-08-28T10:08:13.812Z,9.00
2018-08-28T10:10:42.166Z,9.83
2018-08-28T10:13:16.086Z,9.58
2018-08-28T10:15:52.826Z,8.63
2018-08-28T10:18:21.082Z,10.35
2018-08-28T10:20:49.672Z,7.03
2018-08-28T10:23:18.027Z,7.10
2018-08-28T10:25:46.529Z,8.70
2018-08-28T10:28:14.775Z,7.42
2018-08-28T10:30:43.124Z,9.20
2018-08-28T10:33:11.374Z,6.72
2018-08-28T10:35:39.826Z,9.58
2018-08-28T10:38:08.104Z,9.43
2018-08-28T10:40:36.333Z,6.75
2018-08-28T10:43:04.672Z,7.33
2018-08-28T10:45:33.404Z,6.42
2018-08-28T10:48:01.984Z,7.92
2018-08-28T10:50:30.400Z,7.90
2018-08-28T10:52:58.731Z,7.00
2018-08-28T10:55:27.199Z,7.37
2018-08-28T10:57:55.494Z,6.00
2018-08-28T11:00:23.771Z,8.93
2018-08-28T11:02:52.051Z,6.83
2018-08-28T11:05:20.336Z,6.15
2018-08-28T11:07:48.791Z,8.30
2018-08-28T11:10:17.114Z,5.95
2018-08-28T11:12:45.462Z,6.30
2018-08-28T11:15:13.732Z,7.95
2018-08-28T11:17:42.051Z,6.33
2018-08-28T11:20:10.338Z,5.00
2018-08-28T11:22:38.616Z,8.28
2018-08-28T11:25:06.883Z,7.45
2018-08-28T11:27:35.164Z,8.63
2018-08-28T11:30:03.494Z,7.28
2018-08-28T11:32:31.893Z,8.08
2018-08-28T11:35:00.192Z,5.95
2018-08-28T11:37:28.464Z,5.55
2018-08-28T11:39:57.065Z,7.83
2018-08-28T11:42:25.367Z,8.15
2018-08-28T11:44:53.766Z,5.42
2018-08-28T11:47:22.051Z,8.35
2018-08-28T11:49:50.326Z,6.17
2018-08-28T11:52:18.631Z,6.60
2018-08-28T11:54:46.937Z,6.05
2018-08-28T11:57:15.234Z,8.63
2018-08-28T11:59:43.527Z,6.20
2018-08-28T12:02:11.787Z,7.30
2018-08-28T12:04:40.118Z,8.65
2018-08-28T12:07:08.703Z,8.23
2018-08-28T12:09:36.982Z,7.95
2018-08-28T12:12:05.420Z,13.98
2018-08-28T12:14:33.694Z,5.50
2018-08-28T12:17:02.118Z,9.58
2018-08-28T12:19:30.414Z,9.75
2018-08-28T12:21:59.039Z,6.72
2018-08-28T12:24:27.580Z,7.67
2018-08-28T12:26:55.855Z,7.15
2018-08-28T12:29:24.162Z,8.20
2018-08-28T12:31:52.455Z,6.80
2018-08-28T12:34:20.719Z,9.40
2018-08-28T12:36:49.485Z,8.20
2018-08-28T12:39:17.678Z,6.53
2018-08-28T12:41:45.992Z,8.38
2018-08-28T12:44:14.262Z,7.28
2018-08-28T12:46:42.622Z,5.55
2018-08-28T12:49:10.992Z,6.75
2018-08-28T12:51:39.294Z,7.70
2018-08-28T12:54:07.594Z,7.20
2018-08-28T12:56:35.879Z,7.28
2018-08-28T12:59:04.131Z,9.15
2018-08-28T13:01:32.390Z,6.60
2018-08-28T13:04:00.914Z,9.10
2018-08-28T13:06:29.267Z,5.83
2018-08-28T13:08:57.872Z,7.17
2018-08-28T13:11:26.751Z,6.95
2018-08-28T13:13:55.183Z,8.10
2018-08-28T13:16:23.474Z,6.95
2018-08-28T13:18:51.751Z,7.65
2018-08-28T13:21:20.030Z,9.08
2018-08-28T13:23:48.271Z,6.00
2018-08-28T13:26:16.603Z,6.55
2018-08-28T13:28:44.863Z,7.70
2018-08-28T13:31:13.261Z,7.53
2018-08-28T13:33:41.532Z,7.28
2018-08-28T13:36:09.783Z,6.83
2018-08-28T13:38:38.198Z,6.05
2018-08-28T13:41:06.585Z,5.20
2018-08-28T13:43:34.987Z,6.70
2018-08-28T13:46:03.337Z,8.85
2018-08-28T13:48:31.642Z,8.25
2018-08-28T13:50:59.925Z,9.25
2018-08-28T13:53:28.260Z,7.00
2018-08-28T13:55:56.570Z,6.20
2018-08-28T13:58:24.838Z,8.43
2018-08-28T14:00:53.122Z,8.13
2018-08-28T14:03:21.698Z,6.20
2018-08-28T14:05:49.967Z,7.97
2018-08-28T14:08:18.305Z,6.00
2018-08-28T14:10:46.635Z,6.55
2018-08-28T14:13:15.108Z,8.23
2018-08-28T14:15:43.542Z,7.33
2018-08-28T14:18:11.837Z,7.85
2018-08-28T14:20:40.196Z,5.85
2018-08-28T14:23:08.643Z,10.03
2018-08-28T14:25:37.030Z,7.60
2018-08-28T14:28:05.836Z,7.87
2018-08-28T14:30:34.314Z,8.03
2018-08-28T14:33:02.626Z,5.83
2018-08-28T14:35:32.031Z,7.05
2018-08-28T14:38:00.350Z,6.33
2018-08-28T14:40:28.674Z,7.10
2018-08-28T14:42:56.954Z,6.25
2018-08-28T14:45:25.402Z,5.83
2018-08-28T14:47:53.820Z,6.50
2018-08-28T14:50:22.404Z,8.05
2018-08-28T14:52:50.654Z,6.62
2018-08-28T14:55:18.972Z,8.65
2018-08-28T14:57:47.240Z,7.95
2018-08-28T15:00:15.559Z,8.33
2018-08-28T15:02:43.808Z,5.67
2018-08-28T15:05:12.084Z,9.53
2018-08-28T15:07:40.411Z,6.70
2018-08-28T15:10:08.830Z,6.22
2018-08-28T15:12:37.108Z,8.65
2018-08-28T15:15:05.694Z,9.08
2018-08-28T15:17:33.995Z,7.97
2018-08-28T15:20:02.407Z,9.85
2018-08-28T15:22:30.906Z,7.60
2018-08-28T15:25:06.301Z,9.58
2018-08-28T15:27:35.176Z,5.45
2018-08-28T15:30:03.455Z,7.08
2018-08-28T15:32:31.741Z,6.67
2018-08-28T15:35:00.126Z,8.25
2018-08-28T15:37:28.532Z,9.80
2018-08-28T15:39:56.782Z,7.90
2018-08-28T15:42:25.030Z,8.68
2018-08-28T15:44:53.278Z,8.45
2018-08-28T15:47:21.662Z,11.43
2018-08-28T15:49:49.988Z,10.63
2018-08-28T15:52:18.239Z,7.22
2018-08-28T15:54:46.534Z,8.20
2018-08-28T15:57:15.170Z,6.97
2018-08-28T15:59:43.462Z,10.83
2018-08-28T16:02:12.166Z,8.40
2018-08-28T16:04:40.488Z,8.03
2018-08-28T16:07:08.724Z,12.07
2018-08-28T16:09:37.088Z,8.40
2018-08-28T16:12:05.790Z,10.23
2018-08-28T16:14:34.050Z,11.18
2018-08-28T16:17:02.351Z,8.47
2018-08-28T16:19:30.812Z,10.18
2018-08-28T16:22:00.607Z,8.60
2018-08-28T16:24:28.876Z,9.50
2018-08-28T16:26:57.170Z,8.27
2018-08-28T16:29:25.462Z,7.43
2018-08-28T16:31:53.715Z,9.13
2018-08-28T16:34:21.998Z,8.10
2018-08-28T16:36:50.345Z,8.20
2018-08-28T16:39:18.668Z,8.30
2018-08-28T16:41:46.942Z,8.87
2018-08-28T16:44:15.223Z,7.80
2018-08-28T16:46:43.552Z,9.63
2018-08-28T16:49:11.779Z,6.97
2018-08-28T16:51:40.047Z,10.87
2018-08-28T16:54:08.310Z,7.87
2018-08-28T16:56:36.552Z,9.57
2018-08-28T16:59:05.053Z,7.27
2018-08-28T17:01:33.891Z,7.33
2018-08-28T17:04:02.033Z,13.90
2018-08-28T17:06:30.279Z,11.10
2018-08-28T17:08:58.535Z,8.57
2018-08-28T17:11:26.790Z,7.70
2018-08-28T17:13:55.031Z,9.73
2018-08-28T17:16:23.292Z,11.67
2018-08-28T17:18:51.958Z,7.57
2018-08-28T17:21:20.316Z,10.30
2018-08-28T17:23:48.907Z,22.23
2018-08-28T17:26:17.179Z,7.13
2018-08-28T17:28:45.687Z,10.17
2018-08-28T17:31:13.934Z,9.20
2018-08-28T17:33:42.522Z,9.77
2018-08-28T17:36:11.496Z,7.03
2018-08-28T17:38:40.505Z,7.07
2018-08-28T17:41:10.358Z,9.97
2018-08-28T17:43:38.670Z,8.23
2018-08-28T17:46:07.068Z,7.40
2018-08-28T17:48:35.363Z,11.10
2018-08-28T17:51:03.627Z,8.50
2018-08-28T17:53:31.927Z,7.33
2018-08-28T17:56:00.171Z,10.37
2018-08-28T17:58:28.412Z,8.40
2018-08-28T18:00:56.688Z,9.43
2018-08-28T18:03:25.129Z,9.63
2018-08-28T18:05:53.367Z,6.67
2018-08-28T18:08:21.621Z,7.27
2018-08-28T18:10:49.972Z,7.47
2018-08-28T18:13:18.138Z,7.13
2018-08-28T18:15:46.794Z,7.97
2018-08-28T18:18:15.071Z,6.43
2018-08-28T18:20:43.339Z,8.10
2018-08-28T18:23:12.103Z,7.20
2018-08-28T18:25:40.400Z,6.67
2018-08-28T18:28:08.819Z,8.43
2018-08-28T18:30:37.589Z,9.63
2018-08-28T18:33:05.854Z,8.43
2018-08-28T18:35:34.207Z,8.60
2018-08-28T18:38:02.446Z,9.07
2018-08-28T18:40:30.940Z,7.63
2018-08-28T18:42:59.695Z,7.47
2018-08-28T18:45:28.327Z,9.00
2018-08-28T18:47:57.045Z,9.20
2018-08-28T18:50:26.467Z,9.83
2018-08-28T18:52:55.922Z,8.00
2018-08-28T18:55:24.742Z,13.53
2018-08-28T18:57:53.894Z,14.90
2018-08-28T19:00:22.437Z,8.67
2018-08-28T19:02:51.976Z,8.90
2018-08-28T19:05:20.347Z,6.47
2018-08-28T19:07:48.860Z,7.03
2018-08-28T19:10:17.754Z,10.27
2018-08-28T19:12:46.459Z,9.47
2018-08-28T19:15:15.282Z,8.77
2018-08-28T19:17:44.955Z,8.33
2018-08-28T19:20:13.675Z,9.27
2018-08-28T19:22:42.710Z,9.47
2018-08-28T19:25:11.829Z,13.07
2018-08-28T19:27:40.482Z,8.57
2018-08-28T19:30:09.482Z,7.93
2018-08-28T19:32:38.294Z,9.87
2018-08-28T19:35:07.304Z,8.43
2018-08-28T19:37:35.865Z,6.97
2018-08-28T19:40:04.528Z,9.70
2018-08-28T19:42:33.401Z,9.67
2018-08-28T19:45:02.525Z,9.23
2018-08-28T19:47:31.444Z,11.40
2018-08-28T19:50:00.362Z,8.13
2018-08-28T19:52:29.029Z,8.57
2018-08-28T19:54:57.528Z,8.83
2018-08-28T19:57:26.127Z,12.53
2018-08-28T19:59:54.855Z,10.00
2018-08-28T20:02:23.349Z,9.63
2018-08-28T20:04:51.904Z,10.87
2018-08-28T20:07:20.463Z,7.70
2018-08-28T20:09:49.730Z,12.73
2018-08-28T20:12:18.502Z,14.43
2018-08-28T20:14:47.086Z,11.77
2018-08-28T20:17:15.520Z,7.93
2018-08-28T20:19:44.147Z,11.43
2018-08-28T20:22:12.911Z,9.80
2018-08-28T20:24:41.263Z,7.13
2018-08-28T20:27:09.745Z,9.80
2018-08-28T20:29:38.577Z,12.10
2018-08-28T20:32:08.353Z,11.17
2018-08-28T20:34:36.936Z,9.83
2018-08-28T20:37:06.412Z,11.50
2018-08-28T20:39:34.981Z,11.40
2018-08-28T20:42:03.308Z,10.47
2018-08-28T20:44:31.618Z,9.37
2018-08-28T20:46:59.918Z,11.43
2018-08-28T20:49:28.299Z,9.43
2018-08-28T20:51:56.597Z,9.37
2018-08-28T20:54:24.980Z,9.63
2018-08-28T20:56:53.357Z,12.77
2018-08-28T20:59:21.819Z,11.23
2018-08-28T21:01:50.088Z,13.20
2018-08-28T21:04:18.454Z,11.27
2018-08-28T21:06:46.845Z,11.53
2018-08-28T21:09:15.126Z,11.93
2018-08-28T21:11:43.550Z,15.70
2018-08-28T21:14:11.838Z,12.63
2018-08-28T21:16:40.201Z,15.97
2018-08-28T21:19:08.565Z,15.37
2018-08-28T21:21:36.942Z,17.00
2018-08-28T21:24:05.343Z,10.83
2018-08-28T21:26:33.620Z,13.40
2018-08-28T21:29:01.979Z,10.77
2018-08-28T21:31:30.214Z,14.87
2018-08-28T21:33:58.541Z,13.00
2018-08-28T21:36:26.871Z,13.27
2018-08-28T21:38:55.171Z,10.53
2018-08-28T21:41:23.451Z,11.87
2018-08-28T21:43:51.733Z,14.57
2018-08-28T21:46:20.275Z,11.43
2018-08-28T21:48:48.569Z,13.87
2018-08-28T21:51:16.874Z,10.27
2018-08-28T21:53:45.130Z,12.57
2018-08-28T21:56:13.481Z,11.33
2018-08-28T21:58:41.749Z,11.67
2018-08-28T22:01:10.015Z,12.10
2018-08-28T22:03:38.680Z,12.40
2018-08-28T22:06:11.468Z,9.37
2018-08-28T22:08:39.826Z,8.47
2018-08-28T22:11:08.237Z,11.93
2018-08-28T22:13:36.518Z,10.47
2018-08-28T22:16:04.776Z,9.97
2018-08-28T22:18:33.026Z,11.80
2018-08-28T22:21:01.286Z,10.93
2018-08-28T22:23:29.547Z,12.60
2018-08-28T22:25:57.799Z,10.27
2018-08-28T22:28:26.078Z,10.37
2018-08-28T22:30:54.319Z,12.03
2018-08-28T22:33:22.581Z,11.00
2018-08-28T22:35:50.863Z,10.77
2018-08-28T22:38:19.119Z,10.73
2018-08-28T22:40:47.382Z,9.80
2018-08-28T22:43:22.871Z,12.27
2018-08-28T22:45:51.469Z,10.77
2018-08-28T22:48:19.858Z,12.93
2018-08-28T22:50:48.342Z,12.87
2018-08-28T22:53:16.627Z,11.57
2018-08-28T22:55:44.974Z,10.00
2018-08-28T22:58:13.218Z,10.87
2018-08-28T23:00:41.493Z,9.90
2018-08-28T23:03:09.740Z,11.67
2018-08-28T23:05:37.987Z,12.90
2018-08-28T23:08:06.227Z,11.03
2018-08-28T23:10:34.481Z,10.40
2018-08-28T23:13:02.714Z,8.83
2018-08-28T23:15:30.963Z,10.90
2018-08-28T23:17:59.251Z,11.10
2018-08-28T23:20:27.511Z,10.93
2018-08-28T23:22:55.793Z,9.60
2018-08-28T23:25:24.069Z,9.37
2018-08-28T23:27:52.318Z,8.57
2018-08-28T23:30:20.566Z,9.97
2018-08-28T23:32:48.832Z,12.17
2018-08-28T23:35:17.086Z,13.33
2018-08-28T23:37:45.330Z,13.43
2018-08-28T23:40:13.595Z,10.37
2018-08-28T23:42:41.842Z,9.97
2018-08-28T23:45:10.098Z,12.23
2018-08-28T23:47:38.347Z,9.80
2018-08-28T23:50:06.663Z,15.10
2018-08-28T23:52:34.905Z,9.23
2018-08-28T23:55:03.171Z,9.63
2018-08-28T23:57:31.479Z,10.57
2018-08-28T23:59:59.750Z,12.80
